Cha Ian Airport


Codes: VTSN/NST
Name: Cha Ian Airport
City:
Country: Thailand
Elevation: 44 ft.
Wikipedia:

Photos at Cha Ian Airport


   Photos courtesy of SpottingLog. You can add your own sightings and photos by signing up for a free trial today.



No photos found.

Weather at Cha Ian Airport


Time (UTC)DescriptionTempratureWindCloud coverageVisibilityPressureHumidity
25-Jun-2024 15:00Overcast Clouds26°C2 mph, W100%10000m1008hPa83%
25-Jun-2024 18:00Light Rain26°C2 mph, W100%10000m1008hPa84%
25-Jun-2024 21:00Light Rain25°C2 mph, NW100%10000m1007hPa82%
26-Jun-2024 00:00Overcast Clouds26°C0 mph, SW100%10000m1008hPa81%
26-Jun-2024 03:00Light Rain27°C2 mph, NW100%10000m1009hPa77%
26-Jun-2024 06:00Overcast Clouds29°C2 mph, NE100%10000m1008hPa68%
26-Jun-2024 09:00Light Rain30°C7 mph, NE100%10000m1006hPa67%
26-Jun-2024 12:00Light Rain26°C4 mph, E100%10000m1008hPa90%
26-Jun-2024 15:00Light Rain26°C0 mph, SE100%10000m1010hPa91%
26-Jun-2024 18:00Light Rain26°C0 mph, SW100%10000m1010hPa93%
26-Jun-2024 21:00Light Rain25°C2 mph, SW79%10000m1008hPa95%
27-Jun-2024 00:00Moderate Rain25°C2 mph, SW91%10000m1010hPa95%
27-Jun-2024 03:00Light Rain29°C2 mph, SE95%10000m1011hPa75%
27-Jun-2024 06:00Light Rain32°C7 mph, E98%10000m1008hPa60%
27-Jun-2024 09:00Moderate Rain29°C4 mph, E79%6713m1007hPa83%
27-Jun-2024 12:00Moderate Rain26°C2 mph, SE90%10000m1009hPa89%
27-Jun-2024 15:00Light Rain25°C2 mph, SW99%10000m1011hPa92%
27-Jun-2024 18:00Light Rain25°C4 mph, SW87%10000m1010hPa93%
27-Jun-2024 21:00Overcast Clouds25°C2 mph, SW98%10000m1009hPa92%
28-Jun-2024 00:00Overcast Clouds25°C2 mph, SW99%10000m1010hPa89%
28-Jun-2024 03:00Overcast Clouds31°C2 mph, SW92%10000m1011hPa61%
28-Jun-2024 06:00Overcast Clouds33°C2 mph, S86%10000m1008hPa52%
28-Jun-2024 09:00Light Rain29°C7 mph, W100%5636m1007hPa77%
28-Jun-2024 12:00Light Rain26°C7 mph, SW100%10000m1008hPa89%
28-Jun-2024 15:00Overcast Clouds25°C4 mph, W97%10000m1010hPa90%
28-Jun-2024 18:00Overcast Clouds25°C4 mph, W96%10000m1009hPa90%
28-Jun-2024 21:00Overcast Clouds25°C2 mph, W100%10000m1008hPa90%
29-Jun-2024 00:00Overcast Clouds26°C2 mph, SW100%10000m1010hPa88%
29-Jun-2024 03:00Broken Clouds32°C2 mph, SW79%10000m1010hPa54%
29-Jun-2024 06:00Light Rain33°C4 mph, SW81%10000m1008hPa55%
29-Jun-2024 09:00Light Rain31°C7 mph, W96%10000m1007hPa61%
29-Jun-2024 12:00Light Rain27°C2 mph, SW80%10000m1009hPa81%
29-Jun-2024 15:00Overcast Clouds26°C4 mph, W100%10000m1010hPa84%
29-Jun-2024 18:00Overcast Clouds25°C4 mph, W100%10000m1009hPa87%
29-Jun-2024 21:00Broken Clouds25°C4 mph, SW82%10000m1009hPa86%
30-Jun-2024 00:00Overcast Clouds25°C4 mph, SW89%10000m1010hPa82%
30-Jun-2024 03:00Overcast Clouds32°C2 mph, SW99%10000m1010hPa54%
30-Jun-2024 06:00Overcast Clouds33°C4 mph, W100%10000m1008hPa50%
30-Jun-2024 09:00Overcast Clouds32°C2 mph, SW100%10000m1007hPa56%
30-Jun-2024 12:00Light Rain27°C4 mph, SW84%10000m1008hPa80%